AAY194 KBNA-KABE
Flight info
| Callsign | AAY194 |
|---|---|
| Flight time | 1h 36m |
| Altitude | 37000 |
| Route | KRSTA4 KRSTA |
| Aircraft | A320/M-SDE3FGHIRWY/LB1 |
Departure
| Time | 2026-04-19 03:33 |
|---|---|
| Airport | Nashville International Airport (KBNA) |
Arrival
| Time | 2026-04-19 05:10 |
|---|---|
| Airport | Lehigh Valley International Airport (KABE) |
| Time | Latitude | Longitude | Altitude | Speed | Heading |
|---|---|---|---|---|---|
| 2026-04-19 03:01 | 36.12746 | -86.67284 | 575 ft | 0 kts | 186° |
| 2026-04-19 03:22 | 36.12747 | -86.67284 | 575 ft | 2 kts | 186° |
| 2026-04-19 03:22 | 36.12772 | -86.67280 | 579 ft | 4 kts | 193° |
| 2026-04-19 03:22 | 36.12797 | -86.67269 | 575 ft | 4 kts | 223° |
| 2026-04-19 03:23 | 36.12805 | -86.67254 | 577 ft | 1 kts | 316° |
| 2026-04-19 03:23 | 36.12804 | -86.67253 | 577 ft | 0 kts | 316° |
| 2026-04-19 03:25 | 36.12811 | -86.67262 | 577 ft | 6 kts | 316° |
| 2026-04-19 03:26 | 36.12819 | -86.67312 | 578 ft | 6 kts | 242° |
| 2026-04-19 03:26 | 36.12790 | -86.67347 | 575 ft | 6 kts | 224° |
| 2026-04-19 03:26 | 36.12758 | -86.67385 | 576 ft | 7 kts | 224° |
| 2026-04-19 03:26 | 36.12699 | -86.67402 | 575 ft | 16 kts | 151° |
| 2026-04-19 03:27 | 36.12618 | -86.67303 | 578 ft | 15 kts | 133° |
| 2026-04-19 03:27 | 36.12548 | -86.67211 | 575 ft | 14 kts | 133° |
| 2026-04-19 03:27 | 36.12485 | -86.67128 | 575 ft | 12 kts | 134° |
| 2026-04-19 03:27 | 36.12420 | -86.67044 | 575 ft | 20 kts | 133° |
| 2026-04-19 03:28 | 36.12316 | -86.66907 | 574 ft | 17 kts | 130° |
| 2026-04-19 03:28 | 36.12271 | -86.66781 | 576 ft | 15 kts | 107° |
| 2026-04-19 03:28 | 36.12240 | -86.66665 | 576 ft | 13 kts | 109° |
| 2026-04-19 03:28 | 36.12209 | -86.66565 | 576 ft | 12 kts | 130° |
| 2026-04-19 03:29 | 36.12140 | -86.66562 | 574 ft | 10 kts | 200° |
| 2026-04-19 03:29 | 36.12068 | -86.66592 | 578 ft | 16 kts | 198° |
| 2026-04-19 03:29 | 36.11963 | -86.66635 | 575 ft | 15 kts | 198° |
| 2026-04-19 03:29 | 36.11862 | -86.66675 | 578 ft | 18 kts | 198° |
| 2026-04-19 03:30 | 36.11728 | -86.66728 | 579 ft | 20 kts | 198° |
| 2026-04-19 03:30 | 36.11607 | -86.66775 | 575 ft | 17 kts | 198° |
| 2026-04-19 03:30 | 36.11505 | -86.66817 | 575 ft | 14 kts | 198° |
| 2026-04-19 03:30 | 36.11428 | -86.66848 | 577 ft | 11 kts | 198° |
| 2026-04-19 03:31 | 36.11362 | -86.66875 | 575 ft | 10 kts | 198° |
| 2026-04-19 03:31 | 36.11318 | -86.66873 | 575 ft | 0 kts | 148° |
| 2026-04-19 03:31 | 36.11316 | -86.66870 | 575 ft | 3 kts | 138° |
| 2026-04-19 03:31 | 36.11319 | -86.66755 | 578 ft | 12 kts | 29° |
| 2026-04-19 03:32 | 36.11345 | -86.66741 | 576 ft | 0 kts | 19° |
| 2026-04-19 03:32 | 36.11352 | -86.66738 | 579 ft | 7 kts | 19° |
| 2026-04-19 03:32 | 36.11451 | -86.66698 | 576 ft | 43 kts | 17° |
| 2026-04-19 03:33 | 36.11965 | -86.66493 | 575 ft | 110 kts | 18° |
| 2026-04-19 03:33 | 36.12858 | -86.66134 | 685 ft | 149 kts | 17° |
| 2026-04-19 03:33 | 36.13816 | -86.65747 | 1397 ft | 144 kts | 16° |
| 2026-04-19 03:33 | 36.14760 | -86.65425 | 2151 ft | 137 kts | 13° |
| 2026-04-19 03:34 | 36.15667 | -86.65149 | 2705 ft | 136 kts | 13° |
| 2026-04-19 03:34 | 36.16660 | -86.64822 | 2947 ft | 156 kts | 11° |
| 2026-04-19 03:34 | 36.17798 | -86.64501 | 3182 ft | 181 kts | 11° |
| 2026-04-19 03:34 | 36.19122 | -86.64147 | 3465 ft | 207 kts | 11° |
| 2026-04-19 03:35 | 36.20604 | -86.63742 | 3943 ft | 228 kts | 11° |
| 2026-04-19 03:35 | 36.22189 | -86.63289 | 4666 ft | 237 kts | 10° |
| 2026-04-19 03:35 | 36.23833 | -86.62817 | 5366 ft | 247 kts | 10° |
| 2026-04-19 03:35 | 36.25543 | -86.62317 | 6049 ft | 258 kts | 10° |
| 2026-04-19 03:36 | 36.27329 | -86.61789 | 6689 ft | 269 kts | 9° |
| 2026-04-19 03:36 | 36.29180 | -86.61229 | 7315 ft | 279 kts | 12° |
| 2026-04-19 03:36 | 36.31042 | -86.60392 | 8007 ft | 289 kts | 17° |
| 2026-04-19 03:36 | 36.32941 | -86.59477 | 8703 ft | 296 kts | 17° |
| 2026-04-19 03:37 | 36.34889 | -86.58539 | 9376 ft | 304 kts | 17° |
| 2026-04-19 03:37 | 36.36885 | -86.57583 | 10045 ft | 312 kts | 17° |
| 2026-04-19 03:37 | 36.38970 | -86.56587 | 10393 ft | 332 kts | 17° |
| 2026-04-19 03:37 | 36.41174 | -86.55536 | 10627 ft | 353 kts | 17° |
| 2026-04-19 03:38 | 36.43506 | -86.54417 | 11180 ft | 362 kts | 17° |
| 2026-04-19 03:38 | 36.45871 | -86.53274 | 11848 ft | 367 kts | 17° |
| 2026-04-19 03:38 | 36.48263 | -86.52116 | 12556 ft | 371 kts | 17° |
| 2026-04-19 03:38 | 36.50682 | -86.50948 | 13256 ft | 375 kts | 17° |
| 2026-04-19 03:39 | 36.53119 | -86.49768 | 13945 ft | 378 kts | 17° |
| 2026-04-19 03:39 | 36.55589 | -86.48572 | 14551 ft | 382 kts | 17° |
| 2026-04-19 03:39 | 36.58074 | -86.47370 | 15142 ft | 386 kts | 17° |
| 2026-04-19 03:39 | 36.60587 | -86.46135 | 15730 ft | 390 kts | 17° |
| 2026-04-19 03:40 | 36.63113 | -86.44853 | 16324 ft | 394 kts | 17° |
| 2026-04-19 03:40 | 36.65655 | -86.43539 | 16907 ft | 397 kts | 17° |
| 2026-04-19 03:40 | 36.68213 | -86.42198 | 17485 ft | 402 kts | 19° |
| 2026-04-19 03:40 | 36.70673 | -86.40447 | 18057 ft | 414 kts | 31° |
| 2026-04-19 03:41 | 36.72868 | -86.38069 | 18604 ft | 424 kts | 43° |
| 2026-04-19 03:41 | 36.74689 | -86.35137 | 19061 ft | 433 kts | 56° |
| 2026-04-19 03:41 | 36.76146 | -86.31819 | 19505 ft | 439 kts | 60° |
| 2026-04-19 03:41 | 36.77584 | -86.28433 | 19946 ft | 444 kts | 61° |
| 2026-04-19 03:42 | 36.79032 | -86.25015 | 20385 ft | 449 kts | 61° |
| 2026-04-19 03:42 | 36.80502 | -86.21551 | 20829 ft | 454 kts | 61° |
| 2026-04-19 03:42 | 36.81987 | -86.18049 | 21267 ft | 459 kts | 61° |
| 2026-04-19 03:42 | 36.83489 | -86.14504 | 21709 ft | 464 kts | 61° |
| 2026-04-19 03:43 | 36.85001 | -86.10932 | 22150 ft | 469 kts | 61° |
| 2026-04-19 03:43 | 36.86529 | -86.07307 | 22581 ft | 474 kts | 62° |
| 2026-04-19 03:43 | 36.88069 | -86.03653 | 23022 ft | 479 kts | 62° |
| 2026-04-19 03:43 | 36.89611 | -85.99999 | 23440 ft | 483 kts | 62° |
| 2026-04-19 03:44 | 36.91183 | -85.96263 | 23849 ft | 488 kts | 62° |
| 2026-04-19 03:44 | 36.92766 | -85.92496 | 24213 ft | 492 kts | 62° |
| 2026-04-19 03:44 | 36.94359 | -85.88699 | 24592 ft | 495 kts | 62° |
| 2026-04-19 03:44 | 36.95958 | -85.84886 | 24978 ft | 497 kts | 62° |
| 2026-04-19 03:45 | 36.97568 | -85.81044 | 25349 ft | 499 kts | 62° |
| 2026-04-19 03:45 | 36.99182 | -85.77186 | 25704 ft | 502 kts | 62° |
| 2026-04-19 03:45 | 37.00804 | -85.73300 | 26055 ft | 505 kts | 62° |
| 2026-04-19 03:45 | 37.02431 | -85.69403 | 26407 ft | 507 kts | 62° |
| 2026-04-19 03:46 | 37.04068 | -85.65481 | 26744 ft | 509 kts | 62° |
| 2026-04-19 03:46 | 37.05706 | -85.61551 | 27079 ft | 511 kts | 62° |
| 2026-04-19 03:46 | 37.07357 | -85.57587 | 27417 ft | 514 kts | 62° |
| 2026-04-19 03:46 | 37.09009 | -85.53610 | 27759 ft | 516 kts | 62° |
| 2026-04-19 03:47 | 37.10665 | -85.49617 | 28102 ft | 518 kts | 63° |
| 2026-04-19 03:47 | 37.12326 | -85.45603 | 28441 ft | 520 kts | 63° |
| 2026-04-19 03:47 | 37.13994 | -85.41573 | 28770 ft | 522 kts | 63° |
| 2026-04-19 03:47 | 37.15666 | -85.37523 | 29095 ft | 524 kts | 63° |
| 2026-04-19 03:48 | 37.17342 | -85.33458 | 29406 ft | 526 kts | 63° |
| 2026-04-19 03:48 | 37.19025 | -85.29372 | 29710 ft | 528 kts | 63° |
| 2026-04-19 03:48 | 37.20714 | -85.25267 | 30003 ft | 530 kts | 63° |
| 2026-04-19 03:48 | 37.22410 | -85.21146 | 30281 ft | 533 kts | 63° |
| 2026-04-19 03:49 | 37.24113 | -85.17010 | 30519 ft | 535 kts | 63° |
| 2026-04-19 03:49 | 37.25821 | -85.12853 | 30730 ft | 537 kts | 63° |
| 2026-04-19 03:49 | 37.27533 | -85.08677 | 30934 ft | 539 kts | 63° |
| 2026-04-19 03:49 | 37.29248 | -85.04482 | 31145 ft | 541 kts | 63° |
| 2026-04-19 03:50 | 37.30968 | -85.00273 | 31380 ft | 541 kts | 63° |
| 2026-04-19 03:50 | 37.32663 | -84.96122 | 31662 ft | 541 kts | 63° |
| 2026-04-19 03:50 | 37.34400 | -84.91861 | 31954 ft | 541 kts | 63° |
| 2026-04-19 03:50 | 37.36110 | -84.87664 | 32254 ft | 540 kts | 63° |
| 2026-04-19 03:51 | 37.37798 | -84.83513 | 32548 ft | 540 kts | 63° |
| 2026-04-19 03:51 | 37.39504 | -84.79304 | 32833 ft | 540 kts | 63° |
| 2026-04-19 03:51 | 37.41212 | -84.75087 | 33117 ft | 540 kts | 62° |
| 2026-04-19 03:51 | 37.42911 | -84.70885 | 33406 ft | 540 kts | 62° |
| 2026-04-19 03:52 | 37.44617 | -84.66667 | 33686 ft | 540 kts | 62° |
| 2026-04-19 03:52 | 37.46321 | -84.62450 | 33958 ft | 541 kts | 62° |
| 2026-04-19 03:52 | 37.48024 | -84.58229 | 34214 ft | 541 kts | 62° |
| 2026-04-19 03:52 | 37.49723 | -84.54010 | 34424 ft | 542 kts | 62° |
| 2026-04-19 03:53 | 37.51428 | -84.49772 | 34620 ft | 543 kts | 62° |
| 2026-04-19 03:53 | 37.53136 | -84.45516 | 34805 ft | 544 kts | 62° |
| 2026-04-19 03:53 | 37.54843 | -84.41256 | 34997 ft | 545 kts | 61° |
| 2026-04-19 03:53 | 37.56554 | -84.36984 | 35168 ft | 546 kts | 61° |
| 2026-04-19 03:54 | 37.58264 | -84.32713 | 35343 ft | 547 kts | 61° |
| 2026-04-19 03:54 | 37.59982 | -84.28415 | 35506 ft | 548 kts | 61° |
| 2026-04-19 03:54 | 37.61697 | -84.24114 | 35681 ft | 550 kts | 61° |
| 2026-04-19 03:54 | 37.63413 | -84.19803 | 35835 ft | 551 kts | 60° |
| 2026-04-19 03:55 | 37.65131 | -84.15483 | 35994 ft | 551 kts | 60° |
| 2026-04-19 03:55 | 37.66852 | -84.11150 | 36135 ft | 552 kts | 60° |
| 2026-04-19 03:55 | 37.68572 | -84.06807 | 36285 ft | 553 kts | 60° |
| 2026-04-19 03:55 | 37.70286 | -84.02463 | 36424 ft | 554 kts | 60° |
| 2026-04-19 03:56 | 37.72004 | -83.98102 | 36609 ft | 553 kts | 60° |
| 2026-04-19 03:56 | 37.73715 | -83.93761 | 36854 ft | 552 kts | 60° |
| 2026-04-19 03:56 | 37.75424 | -83.89434 | 37079 ft | 551 kts | 59° |
| 2026-04-19 03:57 | 37.78861 | -83.80723 | 37144 ft | 555 kts | 59° |
| 2026-04-19 03:57 | 37.82305 | -83.71976 | 37138 ft | 555 kts | 59° |
| 2026-04-19 03:58 | 37.85735 | -83.63225 | 37134 ft | 555 kts | 60° |
| 2026-04-19 03:58 | 37.89148 | -83.54472 | 37129 ft | 555 kts | 60° |
| 2026-04-19 03:59 | 37.92533 | -83.45761 | 37132 ft | 555 kts | 60° |
| 2026-04-19 03:59 | 37.95935 | -83.36992 | 37129 ft | 555 kts | 60° |
| 2026-04-19 04:00 | 37.99329 | -83.28219 | 37140 ft | 555 kts | 60° |
| 2026-04-19 04:00 | 38.02718 | -83.19427 | 37128 ft | 554 kts | 60° |
| 2026-04-19 04:01 | 38.06096 | -83.10644 | 37127 ft | 554 kts | 60° |
| 2026-04-19 04:01 | 38.11160 | -82.97475 | 37124 ft | 553 kts | 60° |
| 2026-04-19 04:02 | 38.14512 | -82.88689 | 37113 ft | 552 kts | 60° |
| 2026-04-19 04:02 | 38.17858 | -82.79904 | 37120 ft | 552 kts | 60° |
| 2026-04-19 04:03 | 38.21196 | -82.71123 | 37122 ft | 551 kts | 61° |
| 2026-04-19 04:03 | 38.24522 | -82.62342 | 37115 ft | 551 kts | 61° |
| 2026-04-19 04:04 | 38.27837 | -82.53561 | 37088 ft | 549 kts | 61° |
| 2026-04-19 04:04 | 38.31132 | -82.44798 | 37109 ft | 549 kts | 61° |
| 2026-04-19 04:05 | 38.34421 | -82.36038 | 37110 ft | 547 kts | 61° |
| 2026-04-19 04:05 | 38.37702 | -82.27287 | 37090 ft | 547 kts | 61° |
| 2026-04-19 04:06 | 38.40972 | -82.18543 | 37087 ft | 546 kts | 61° |
| 2026-04-19 04:06 | 38.44217 | -82.09808 | 37080 ft | 545 kts | 62° |
| 2026-04-19 04:07 | 38.47456 | -82.01071 | 37078 ft | 544 kts | 62° |
| 2026-04-19 04:07 | 38.50687 | -81.92348 | 37080 ft | 543 kts | 62° |
| 2026-04-19 04:08 | 38.53888 | -81.83681 | 37082 ft | 542 kts | 62° |
| 2026-04-19 04:08 | 38.57093 | -81.74976 | 37079 ft | 541 kts | 62° |
| 2026-04-19 04:09 | 38.60279 | -81.66283 | 37075 ft | 539 kts | 62° |
| 2026-04-19 04:09 | 38.63453 | -81.57612 | 37070 ft | 538 kts | 62° |
| 2026-04-19 04:10 | 38.66620 | -81.48938 | 37067 ft | 537 kts | 62° |
| 2026-04-19 04:10 | 38.69770 | -81.40273 | 37055 ft | 536 kts | 62° |
| 2026-04-19 04:11 | 38.72904 | -81.31640 | 37050 ft | 534 kts | 62° |
| 2026-04-19 04:11 | 38.76023 | -81.23031 | 37039 ft | 532 kts | 62° |
| 2026-04-19 04:12 | 38.79114 | -81.14433 | 37031 ft | 530 kts | 62° |
| 2026-04-19 04:12 | 38.82193 | -81.05862 | 37023 ft | 528 kts | 62° |
| 2026-04-19 04:13 | 38.85266 | -80.97308 | 37014 ft | 527 kts | 62° |
| 2026-04-19 04:13 | 38.88317 | -80.88778 | 37013 ft | 526 kts | 62° |
| 2026-04-19 04:14 | 38.91353 | -80.80252 | 37008 ft | 524 kts | 62° |
| 2026-04-19 04:14 | 38.94374 | -80.71739 | 37006 ft | 523 kts | 62° |
| 2026-04-19 04:15 | 38.97382 | -80.63259 | 37002 ft | 521 kts | 62° |
| 2026-04-19 04:15 | 39.00358 | -80.54848 | 36999 ft | 520 kts | 62° |
| 2026-04-19 04:16 | 39.03336 | -80.46396 | 37003 ft | 518 kts | 62° |
| 2026-04-19 04:16 | 39.06294 | -80.37962 | 37000 ft | 516 kts | 62° |
| 2026-04-19 04:17 | 39.09237 | -80.29552 | 37002 ft | 515 kts | 62° |
| 2026-04-19 04:17 | 39.12172 | -80.21149 | 37005 ft | 513 kts | 62° |
| 2026-04-19 04:18 | 39.15087 | -80.12771 | 37003 ft | 512 kts | 62° |
| 2026-04-19 04:18 | 39.16534 | -80.08601 | 36684 ft | 509 kts | 63° |
| 2026-04-19 04:18 | 39.17978 | -80.04450 | 36079 ft | 507 kts | 63° |
| 2026-04-19 04:19 | 39.19415 | -80.00317 | 35467 ft | 506 kts | 63° |
| 2026-04-19 04:19 | 39.20853 | -79.96176 | 34859 ft | 504 kts | 63° |
| 2026-04-19 04:19 | 39.22279 | -79.92055 | 34238 ft | 504 kts | 64° |
| 2026-04-19 04:19 | 39.23702 | -79.87927 | 33566 ft | 503 kts | 64° |
| 2026-04-19 04:20 | 39.25122 | -79.83798 | 32833 ft | 504 kts | 64° |
| 2026-04-19 04:20 | 39.26542 | -79.79664 | 32063 ft | 504 kts | 65° |
| 2026-04-19 04:20 | 39.27483 | -79.76924 | 31563 ft | 505 kts | 65° |
| 2026-04-19 04:20 | 39.28901 | -79.72782 | 31116 ft | 504 kts | 65° |
| 2026-04-19 04:21 | 39.30324 | -79.68635 | 30914 ft | 505 kts | 65° |
| 2026-04-19 04:21 | 39.31749 | -79.64490 | 30963 ft | 505 kts | 65° |
| 2026-04-19 04:21 | 39.34591 | -79.56191 | 30958 ft | 505 kts | 65° |
| 2026-04-19 04:22 | 39.37416 | -79.47881 | 30946 ft | 504 kts | 65° |
| 2026-04-19 04:22 | 39.40229 | -79.39592 | 30950 ft | 503 kts | 65° |
| 2026-04-19 04:23 | 39.43032 | -79.31304 | 30940 ft | 503 kts | 65° |
| 2026-04-19 04:23 | 39.45831 | -79.23020 | 30934 ft | 502 kts | 65° |
| 2026-04-19 04:24 | 39.48621 | -79.14744 | 30902 ft | 495 kts | 65° |
| 2026-04-19 04:24 | 39.49971 | -79.10720 | 30776 ft | 481 kts | 65° |
| 2026-04-19 04:24 | 39.51280 | -79.06800 | 30662 ft | 468 kts | 66° |
| 2026-04-19 04:25 | 39.52534 | -79.03037 | 30538 ft | 455 kts | 66° |
| 2026-04-19 04:25 | 39.53771 | -78.99327 | 30432 ft | 443 kts | 65° |
| 2026-04-19 04:25 | 39.54994 | -78.95671 | 30317 ft | 432 kts | 65° |
| 2026-04-19 04:25 | 39.56159 | -78.92190 | 30205 ft | 421 kts | 66° |
| 2026-04-19 04:26 | 39.57309 | -78.88750 | 30049 ft | 411 kts | 65° |
| 2026-04-19 04:26 | 39.58449 | -78.85331 | 29722 ft | 405 kts | 66° |
| 2026-04-19 04:26 | 39.59544 | -78.82042 | 29318 ft | 401 kts | 66° |
| 2026-04-19 04:26 | 39.60644 | -78.78734 | 28918 ft | 398 kts | 66° |
| 2026-04-19 04:27 | 39.61731 | -78.75451 | 28510 ft | 395 kts | 66° |
| 2026-04-19 04:27 | 39.62808 | -78.72188 | 28102 ft | 392 kts | 66° |
| 2026-04-19 04:27 | 39.63875 | -78.68955 | 27900 ft | 389 kts | 66° |
| 2026-04-19 04:27 | 39.64943 | -78.65723 | 27771 ft | 389 kts | 66° |
| 2026-04-19 04:28 | 39.66009 | -78.62496 | 27635 ft | 388 kts | 66° |
| 2026-04-19 04:28 | 39.67072 | -78.59281 | 27498 ft | 387 kts | 66° |
| 2026-04-19 04:28 | 39.68131 | -78.56079 | 27364 ft | 386 kts | 66° |
| 2026-04-19 04:28 | 39.69187 | -78.52871 | 27227 ft | 385 kts | 66° |
| 2026-04-19 04:29 | 39.70235 | -78.49681 | 27096 ft | 384 kts | 66° |
| 2026-04-19 04:29 | 39.71281 | -78.46487 | 26956 ft | 383 kts | 66° |
| 2026-04-19 04:29 | 39.72322 | -78.43306 | 26827 ft | 382 kts | 66° |
| 2026-04-19 04:29 | 39.73361 | -78.40134 | 26693 ft | 381 kts | 66° |
| 2026-04-19 04:30 | 39.74398 | -78.36966 | 26558 ft | 380 kts | 66° |
| 2026-04-19 04:30 | 39.75431 | -78.33808 | 26433 ft | 379 kts | 66° |
| 2026-04-19 04:30 | 39.76461 | -78.30656 | 26304 ft | 378 kts | 66° |
| 2026-04-19 04:30 | 39.77485 | -78.27514 | 26186 ft | 378 kts | 66° |
| 2026-04-19 04:31 | 39.78507 | -78.24370 | 26057 ft | 377 kts | 66° |
| 2026-04-19 04:31 | 39.79523 | -78.21236 | 25940 ft | 376 kts | 66° |
| 2026-04-19 04:31 | 39.80540 | -78.18109 | 25824 ft | 375 kts | 66° |
| 2026-04-19 04:31 | 39.81554 | -78.14990 | 25702 ft | 374 kts | 66° |
| 2026-04-19 04:32 | 39.82565 | -78.11875 | 25586 ft | 373 kts | 66° |
| 2026-04-19 04:32 | 39.83570 | -78.08771 | 25467 ft | 372 kts | 66° |
| 2026-04-19 04:32 | 39.84573 | -78.05670 | 25352 ft | 371 kts | 66° |
| 2026-04-19 04:32 | 39.85575 | -78.02580 | 25230 ft | 370 kts | 66° |
| 2026-04-19 04:33 | 39.86573 | -77.99498 | 25116 ft | 369 kts | 66° |
| 2026-04-19 04:33 | 39.87564 | -77.96421 | 24999 ft | 368 kts | 66° |
| 2026-04-19 04:33 | 39.88550 | -77.93351 | 24879 ft | 367 kts | 66° |
| 2026-04-19 04:33 | 39.89534 | -77.90292 | 24768 ft | 366 kts | 66° |
| 2026-04-19 04:34 | 39.90516 | -77.87233 | 24651 ft | 365 kts | 66° |
| 2026-04-19 04:34 | 39.91491 | -77.84194 | 24533 ft | 360 kts | 66° |
| 2026-04-19 04:34 | 39.92451 | -77.81202 | 24417 ft | 356 kts | 66° |
| 2026-04-19 04:34 | 39.93403 | -77.78233 | 24305 ft | 354 kts | 66° |
| 2026-04-19 04:35 | 39.94349 | -77.75274 | 24186 ft | 353 kts | 66° |
| 2026-04-19 04:35 | 39.95290 | -77.72326 | 24073 ft | 352 kts | 66° |
| 2026-04-19 04:35 | 39.96219 | -77.69424 | 23951 ft | 351 kts | 66° |
| 2026-04-19 04:35 | 39.97168 | -77.66453 | 23849 ft | 350 kts | 66° |
| 2026-04-19 04:36 | 39.98095 | -77.63566 | 23739 ft | 349 kts | 66° |
| 2026-04-19 04:36 | 39.99035 | -77.60655 | 23621 ft | 348 kts | 66° |
| 2026-04-19 04:36 | 39.99972 | -77.57747 | 23507 ft | 347 kts | 66° |
| 2026-04-19 04:36 | 40.00900 | -77.54844 | 23378 ft | 346 kts | 66° |
| 2026-04-19 04:37 | 40.01819 | -77.51953 | 23240 ft | 345 kts | 66° |
| 2026-04-19 04:37 | 40.02744 | -77.49069 | 23111 ft | 344 kts | 66° |
| 2026-04-19 04:37 | 40.03634 | -77.46177 | 22975 ft | 343 kts | 68° |
| 2026-04-19 04:37 | 40.04461 | -77.43262 | 22844 ft | 342 kts | 70° |
| 2026-04-19 04:38 | 40.05258 | -77.40338 | 22710 ft | 341 kts | 70° |
| 2026-04-19 04:38 | 40.06043 | -77.37416 | 22581 ft | 340 kts | 70° |
| 2026-04-19 04:38 | 40.06825 | -77.34505 | 22449 ft | 340 kts | 70° |
| 2026-04-19 04:38 | 40.07610 | -77.31599 | 22318 ft | 339 kts | 70° |
| 2026-04-19 04:39 | 40.08392 | -77.28706 | 22186 ft | 338 kts | 70° |
| 2026-04-19 04:39 | 40.09172 | -77.25823 | 22059 ft | 337 kts | 70° |
| 2026-04-19 04:39 | 40.09963 | -77.22915 | 21938 ft | 348 kts | 70° |
| 2026-04-19 04:39 | 40.10796 | -77.19874 | 21817 ft | 368 kts | 69° |
| 2026-04-19 04:40 | 40.11669 | -77.16696 | 21688 ft | 373 kts | 69° |
| 2026-04-19 04:40 | 40.12545 | -77.13505 | 21561 ft | 374 kts | 70° |
| 2026-04-19 04:40 | 40.13416 | -77.10305 | 21437 ft | 373 kts | 70° |
| 2026-04-19 04:40 | 40.14287 | -77.07088 | 21311 ft | 385 kts | 70° |
| 2026-04-19 04:41 | 40.15210 | -77.03691 | 21188 ft | 408 kts | 70° |
| 2026-04-19 04:41 | 40.16186 | -77.00109 | 21067 ft | 427 kts | 70° |
| 2026-04-19 04:41 | 40.17191 | -76.96415 | 20943 ft | 433 kts | 70° |
| 2026-04-19 04:41 | 40.18197 | -76.92702 | 20817 ft | 433 kts | 70° |
| 2026-04-19 04:42 | 40.19199 | -76.88989 | 20692 ft | 432 kts | 70° |
| 2026-04-19 04:42 | 40.20193 | -76.85292 | 20559 ft | 431 kts | 70° |
| 2026-04-19 04:42 | 40.21178 | -76.81612 | 20115 ft | 426 kts | 70° |
| 2026-04-19 04:42 | 40.22155 | -76.77965 | 19629 ft | 423 kts | 70° |
| 2026-04-19 04:43 | 40.23120 | -76.74364 | 19352 ft | 414 kts | 70° |
| 2026-04-19 04:43 | 40.24063 | -76.70848 | 18752 ft | 408 kts | 70° |
| 2026-04-19 04:43 | 40.25016 | -76.67288 | 17612 ft | 422 kts | 70° |
| 2026-04-19 04:43 | 40.25997 | -76.63619 | 17260 ft | 430 kts | 70° |
| 2026-04-19 04:44 | 40.26985 | -76.59920 | 16922 ft | 428 kts | 70° |
| 2026-04-19 04:44 | 40.27955 | -76.56282 | 15957 ft | 420 kts | 70° |
| 2026-04-19 04:44 | 40.28900 | -76.52724 | 15341 ft | 404 kts | 70° |
| 2026-04-19 04:44 | 40.29803 | -76.49312 | 14650 ft | 391 kts | 70° |
| 2026-04-19 04:45 | 40.30683 | -76.45978 | 13841 ft | 384 kts | 70° |
| 2026-04-19 04:45 | 40.31549 | -76.42696 | 12929 ft | 378 kts | 70° |
| 2026-04-19 04:45 | 40.32402 | -76.39470 | 12001 ft | 373 kts | 70° |
| 2026-04-19 04:45 | 40.33246 | -76.36286 | 11184 ft | 366 kts | 70° |
| 2026-04-19 04:46 | 40.34049 | -76.33255 | 11040 ft | 339 kts | 70° |
| 2026-04-19 04:46 | 40.34796 | -76.30437 | 10869 ft | 317 kts | 70° |
| 2026-04-19 04:46 | 40.35505 | -76.27760 | 10405 ft | 308 kts | 71° |
| 2026-04-19 04:46 | 40.36201 | -76.25123 | 9860 ft | 304 kts | 71° |
| 2026-04-19 04:47 | 40.36875 | -76.22551 | 9240 ft | 300 kts | 71° |
| 2026-04-19 04:47 | 40.37548 | -76.19977 | 8620 ft | 297 kts | 71° |
| 2026-04-19 04:47 | 40.38223 | -76.17403 | 7986 ft | 293 kts | 71° |
| 2026-04-19 04:47 | 40.38873 | -76.14926 | 7724 ft | 291 kts | 71° |
| 2026-04-19 04:48 | 40.39532 | -76.12406 | 7603 ft | 293 kts | 71° |
| 2026-04-19 04:48 | 40.40198 | -76.09854 | 7485 ft | 292 kts | 71° |
| 2026-04-19 04:48 | 40.40849 | -76.07360 | 7366 ft | 292 kts | 71° |
| 2026-04-19 04:48 | 40.41504 | -76.04840 | 7247 ft | 291 kts | 71° |
| 2026-04-19 04:49 | 40.42159 | -76.02327 | 7127 ft | 290 kts | 71° |
| 2026-04-19 04:49 | 40.42810 | -75.99828 | 7004 ft | 289 kts | 71° |
| 2026-04-19 04:49 | 40.43461 | -75.97330 | 6883 ft | 289 kts | 71° |
| 2026-04-19 04:49 | 40.44109 | -75.94833 | 6766 ft | 289 kts | 71° |
| 2026-04-19 04:50 | 40.44754 | -75.92343 | 6643 ft | 288 kts | 71° |
| 2026-04-19 04:50 | 40.45399 | -75.89854 | 6529 ft | 287 kts | 71° |
| 2026-04-19 04:50 | 40.46037 | -75.87384 | 6232 ft | 285 kts | 71° |
| 2026-04-19 04:50 | 40.46674 | -75.84929 | 5810 ft | 283 kts | 72° |
| 2026-04-19 04:51 | 40.47307 | -75.82484 | 5375 ft | 282 kts | 72° |
| 2026-04-19 04:51 | 40.47936 | -75.80053 | 5063 ft | 277 kts | 72° |
| 2026-04-19 04:51 | 40.48537 | -75.77730 | 4979 ft | 261 kts | 72° |
| 2026-04-19 04:51 | 40.49106 | -75.75525 | 4893 ft | 248 kts | 72° |
| 2026-04-19 04:52 | 40.49659 | -75.73436 | 4804 ft | 238 kts | 68° |
| 2026-04-19 04:52 | 40.50617 | -75.71706 | 4553 ft | 235 kts | 42° |
| 2026-04-19 04:52 | 40.51760 | -75.70195 | 4213 ft | 231 kts | 63° |
| 2026-04-19 04:52 | 40.52386 | -75.68280 | 3889 ft | 228 kts | 66° |
| 2026-04-19 04:53 | 40.53400 | -75.66701 | 3597 ft | 229 kts | 36° |
| 2026-04-19 04:53 | 40.54784 | -75.65656 | 3267 ft | 230 kts | 29° |
| 2026-04-19 04:53 | 40.56216 | -75.64725 | 3034 ft | 227 kts | 28° |
| 2026-04-19 04:53 | 40.57642 | -75.63831 | 3017 ft | 228 kts | 28° |
| 2026-04-19 04:54 | 40.59079 | -75.62934 | 3021 ft | 228 kts | 28° |
| 2026-04-19 04:54 | 40.60513 | -75.62039 | 3023 ft | 228 kts | 28° |
| 2026-04-19 04:54 | 40.61949 | -75.61142 | 3023 ft | 229 kts | 28° |
| 2026-04-19 04:54 | 40.63383 | -75.60247 | 3022 ft | 228 kts | 28° |
| 2026-04-19 04:55 | 40.64800 | -75.59364 | 3019 ft | 228 kts | 28° |
| 2026-04-19 04:55 | 40.66251 | -75.58459 | 3018 ft | 228 kts | 28° |
| 2026-04-19 04:55 | 40.67724 | -75.57534 | 3008 ft | 248 kts | 28° |
| 2026-04-19 04:55 | 40.69301 | -75.56536 | 3003 ft | 253 kts | 28° |
| 2026-04-19 04:56 | 40.70889 | -75.55529 | 3004 ft | 254 kts | 28° |
| 2026-04-19 04:56 | 40.72476 | -75.54523 | 3003 ft | 253 kts | 28° |
| 2026-04-19 04:56 | 40.74070 | -75.53523 | 3005 ft | 254 kts | 28° |
| 2026-04-19 04:56 | 40.75668 | -75.52520 | 3003 ft | 254 kts | 28° |
| 2026-04-19 04:57 | 40.77294 | -75.51495 | 2999 ft | 262 kts | 28° |
| 2026-04-19 04:57 | 40.78947 | -75.50454 | 2991 ft | 263 kts | 28° |
| 2026-04-19 04:57 | 40.80602 | -75.49409 | 2993 ft | 264 kts | 28° |
| 2026-04-19 04:57 | 40.82251 | -75.48362 | 2985 ft | 263 kts | 28° |
| 2026-04-19 04:58 | 40.83902 | -75.47314 | 2984 ft | 263 kts | 28° |
| 2026-04-19 04:58 | 40.85555 | -75.46270 | 2982 ft | 263 kts | 28° |
| 2026-04-19 04:58 | 40.87204 | -75.45228 | 2983 ft | 264 kts | 28° |
| 2026-04-19 04:58 | 40.88858 | -75.44184 | 2981 ft | 263 kts | 28° |
| 2026-04-19 04:59 | 40.90512 | -75.43141 | 2966 ft | 263 kts | 28° |
| 2026-04-19 04:59 | 40.92161 | -75.42108 | 2965 ft | 262 kts | 28° |
| 2026-04-19 04:59 | 40.93814 | -75.41075 | 2961 ft | 263 kts | 28° |
| 2026-04-19 04:59 | 40.95469 | -75.40039 | 2968 ft | 263 kts | 28° |
| 2026-04-19 05:00 | 40.97124 | -75.39005 | 2969 ft | 263 kts | 28° |
| 2026-04-19 05:00 | 40.98772 | -75.37975 | 2972 ft | 262 kts | 28° |
| 2026-04-19 05:00 | 41.00422 | -75.36941 | 2971 ft | 262 kts | 27° |
| 2026-04-19 05:00 | 41.02064 | -75.35910 | 2971 ft | 262 kts | 28° |
| 2026-04-19 05:01 | 41.03695 | -75.34833 | 2968 ft | 260 kts | 35° |
| 2026-04-19 05:01 | 41.04975 | -75.33206 | 2969 ft | 254 kts | 59° |
| 2026-04-19 05:01 | 41.05616 | -75.31065 | 2965 ft | 250 kts | 85° |
| 2026-04-19 05:01 | 41.05383 | -75.28813 | 2969 ft | 249 kts | 114° |
| 2026-04-19 05:02 | 41.04352 | -75.26995 | 2977 ft | 250 kts | 135° |
| 2026-04-19 05:02 | 41.02908 | -75.25705 | 2974 ft | 254 kts | 156° |
| 2026-04-19 05:02 | 41.01156 | -75.25339 | 2967 ft | 260 kts | 183° |
| 2026-04-19 05:02 | 40.99363 | -75.25736 | 2972 ft | 262 kts | 188° |
| 2026-04-19 05:03 | 40.97570 | -75.26190 | 2973 ft | 263 kts | 188° |
| 2026-04-19 05:03 | 40.95774 | -75.26649 | 2977 ft | 263 kts | 188° |
| 2026-04-19 05:03 | 40.94023 | -75.27097 | 2962 ft | 247 kts | 188° |
| 2026-04-19 05:03 | 40.92396 | -75.27515 | 2966 ft | 230 kts | 188° |
| 2026-04-19 05:04 | 40.90870 | -75.27902 | 2961 ft | 225 kts | 187° |
| 2026-04-19 05:04 | 40.89339 | -75.28286 | 2967 ft | 223 kts | 188° |
| 2026-04-19 05:04 | 40.87806 | -75.28667 | 2980 ft | 225 kts | 187° |
| 2026-04-19 05:04 | 40.86274 | -75.29047 | 2984 ft | 224 kts | 187° |
| 2026-04-19 05:05 | 40.84739 | -75.29426 | 2992 ft | 225 kts | 187° |
| 2026-04-19 05:05 | 40.83202 | -75.29805 | 2987 ft | 225 kts | 187° |
| 2026-04-19 05:05 | 40.81659 | -75.30189 | 2781 ft | 223 kts | 188° |
| 2026-04-19 05:05 | 40.80178 | -75.30562 | 2707 ft | 211 kts | 188° |
| 2026-04-19 05:06 | 40.78769 | -75.30918 | 2668 ft | 204 kts | 187° |
| 2026-04-19 05:06 | 40.77384 | -75.31267 | 2622 ft | 201 kts | 187° |
| 2026-04-19 05:06 | 40.76020 | -75.31609 | 2593 ft | 196 kts | 187° |
| 2026-04-19 05:06 | 40.74734 | -75.31935 | 2580 ft | 180 kts | 187° |
| 2026-04-19 05:07 | 40.73551 | -75.32236 | 2499 ft | 167 kts | 187° |
| 2026-04-19 05:07 | 40.72457 | -75.32693 | 2300 ft | 166 kts | 206° |
| 2026-04-19 05:07 | 40.71609 | -75.33715 | 2102 ft | 166 kts | 227° |
| 2026-04-19 05:07 | 40.70895 | -75.34893 | 1883 ft | 162 kts | 227° |
| 2026-04-19 05:08 | 40.70205 | -75.36030 | 1680 ft | 156 kts | 226° |
| 2026-04-19 05:08 | 40.68873 | -75.38218 | 1299 ft | 151 kts | 227° |
| 2026-04-19 05:08 | 40.68230 | -75.39274 | 1132 ft | 148 kts | 229° |
| 2026-04-19 05:09 | 40.67589 | -75.40325 | 953 ft | 146 kts | 229° |
| 2026-04-19 05:09 | 40.66953 | -75.41368 | 773 ft | 145 kts | 229° |
| 2026-04-19 05:09 | 40.66322 | -75.42402 | 569 ft | 145 kts | 229° |
| 2026-04-19 05:09 | 40.65697 | -75.43425 | 398 ft | 139 kts | 231° |
| 2026-04-19 05:10 | 40.65190 | -75.44258 | 389 ft | 91 kts | 231° |
| 2026-04-19 05:10 | 40.64901 | -75.44733 | 397 ft | 41 kts | 232° |
| 2026-04-19 05:10 | 40.64794 | -75.44909 | 401 ft | 33 kts | 231° |
| 2026-04-19 05:10 | 40.64683 | -75.45018 | 401 ft | 12 kts | 154° |
| 2026-04-19 05:11 | 40.64635 | -75.44976 | 401 ft | 4 kts | 123° |
| 2026-04-19 05:11 | 40.64639 | -75.44937 | 401 ft | 6 kts | 62° |
| 2026-04-19 05:11 | 40.64686 | -75.44860 | 401 ft | 17 kts | 51° |
| 2026-04-19 05:11 | 40.64757 | -75.44741 | 400 ft | 15 kts | 52° |
| 2026-04-19 05:12 | 40.64818 | -75.44638 | 401 ft | 13 kts | 52° |
| 2026-04-19 05:12 | 40.64872 | -75.44551 | 401 ft | 13 kts | 51° |
| 2026-04-19 05:12 | 40.64934 | -75.44450 | 401 ft | 16 kts | 52° |
| 2026-04-19 05:12 | 40.65018 | -75.44309 | 399 ft | 20 kts | 52° |
| 2026-04-19 05:13 | 40.65104 | -75.44170 | 394 ft | 20 kts | 51° |
| 2026-04-19 05:13 | 40.65175 | -75.44053 | 396 ft | 10 kts | 51° |
| 2026-04-19 05:13 | 40.65216 | -75.43988 | 397 ft | 11 kts | 51° |
| 2026-04-19 05:13 | 40.65272 | -75.43895 | 398 ft | 15 kts | 52° |
| 2026-04-19 05:14 | 40.65344 | -75.43770 | 399 ft | 18 kts | 65° |
| 2026-04-19 05:14 | 40.65330 | -75.43641 | 401 ft | 11 kts | 108° |
| 2026-04-19 05:14 | 40.65296 | -75.43594 | 401 ft | 0 kts | 149° |
| 2026-04-19 05:14 | 40.65290 | -75.43591 | 401 ft | 0 kts | 153° |
| 2026-04-19 05:15 | 40.65290 | -75.43589 | 401 ft | 0 kts | 146° |
| 2026-04-19 05:15 | 40.65288 | -75.43588 | 401 ft | 0 kts | 144° |